Terminal Aerodrome Forecast
Issued by NWS

Home | Current Version | Previous Version | Graphics & Text | Print | Product List | Glossary On
Versions: 1 2 3 4 5 6 7 8 9 10 11 12 13 14 15 16 17
000
FTUS43 KOAX 201740
TAFCDR
TAF
KCDR 201740Z 2018/2118 VRB05KT P6SM OVC007
     FM202000 VRB05KT P6SM OVC015
     FM210000 VRB03KT P6SM SCT050
     FM211600 18007KT P6SM BKN050=

USA.gov is the U.S. government's official web portal to all federal, state and local government web resources and services.